Flood From: 19-02-2018 06:00 Until: 20-02-2018 06:00 warning for: Flood Level: Yellow info button

Although rather usual in this region, locally or potentially dangerous phenomena are expected. (such as local winds, summer thunderstorms, rising streams or high waves) Be aware and pay attention to the latest weather updates, especially if you carry out activities exposed to weather or close to a stream or shoreline. 


Meteo18 Weather Cam more information Meteo18 Weather Cam


Thunder radar more information blitzortung!


Rain radar more information rain snow radar


Visit our other weather sites:

Template documentation
and downloads

And another site



Weather Underground History page Text

Daily Summary for April 27, 2017 Units:  Metric    English   Both
« Previous Day
Next Day »
Daily Weekly Monthly Yearly Custom
  High: Low: Average:
Temperature: -17.8 °C -16.7 °C -14.6 °C
Dew Point: -17.8 °C -18.8 °C -17.3 °C
Humidity: Humidity % 41 % 72 %
Wind Speed: 0 km/h 0 km/h 9.2 km/h
Wind Gust: 0 km/h - -
Wind:- - WSW
Pressure: 0 hPa 34418.7 hPa -
Precipitation: 0 mm    
Historical Graphs
 
 
Tabular Data for April 27, 2017
Time Temperature Dew Point Pressure Wind Wind Speed Wind Gust Humidity Rainfall Rate (Hourly)
-17.8 °C -17.8 °C 0 hPa Calm     Humidity % 0 mm
00:02 -15.7 °C -17.1 °C 34442.4 hPa WNW 2.6 km/h 12.9 km/h 83 % 0 mm
00:07 -15.7 °C -17.1 °C 34442.4 hPa WNW 2.6 km/h 10.3 km/h 84 % 0 mm
00:12 -15.8 °C -17.1 °C 34442.4 hPa WNW 2.6 km/h 10.3 km/h 84 % 0 mm
00:17 -15.8 °C -17.2 °C 34442.4 hPa Calm   7.7 km/h 84 % 0 mm
00:22 -15.9 °C -17.2 °C 34442.4 hPa Calm   7.7 km/h 85 % 0 mm
00:32 -15.9 °C -17.2 °C 34442.4 hPa Calm   5.1 km/h 85 % 0 mm
00:42 -16 °C -17.3 °C 34442.4 hPa WNW 2.6 km/h 5.1 km/h 85 % 0 mm
00:47 -16.1 °C -17.3 °C 34452.6 hPa NW 2.6 km/h 5.1 km/h 85 % 0 mm
00:52 -16.1 °C -17.2 °C 34442.4 hPa NNW 2.6 km/h 5.1 km/h 86 % 0 mm
00:57 -16.1 °C -17.2 °C 34442.4 hPa Calm   5.1 km/h 86 % 0 mm
01:02 -16.1 °C -17.2 °C 34452.6 hPa NW 2.6 km/h 5.1 km/h 86 % 0 mm
01:12 -16.1 °C -17.2 °C 34442.4 hPa NW 2.6 km/h 7.7 km/h 87 % 0 mm
01:17 -16.1 °C -17.2 °C 34442.4 hPa Calm   7.7 km/h 87 % 0 mm
01:22 -16.1 °C -17.2 °C 34442.4 hPa NW 7.7 km/h 7.7 km/h 87 % 0 mm
01:32 -16.1 °C -17.2 °C 34442.4 hPa Calm   7.7 km/h 87 % 0 mm
01:37 -16.1 °C -17.2 °C 34442.4 hPa Calm   7.7 km/h 87 % 0 mm
01:42 -16 °C -17.1 °C 34442.4 hPa Calm   7.7 km/h 87 % 0 mm
01:52 -16 °C -17.1 °C 34442.4 hPa NNW 5.1 km/h 7.7 km/h 87 % 0 mm
02:02 -15.9 °C -17.1 °C 34442.4 hPa NNW 2.6 km/h 12.9 km/h 87 % 0 mm
02:12 -16 °C -17.2 °C 34442.4 hPa NNW 5.1 km/h 15.6 km/h 86 % 0 mm
02:17 -16 °C -17.2 °C 34442.4 hPa NW 12.9 km/h 15.6 km/h 86 % 0 mm
02:22 -16.1 °C -17.2 °C 34442.4 hPa NW 2.6 km/h 15.6 km/h 86 % 0 mm
02:32 -16.2 °C -17.2 °C 34442.4 hPa Calm   12.9 km/h 87 % 0 mm
02:37 -16.2 °C -17.2 °C 34442.4 hPa Calm   12.9 km/h 87 % 0 mm
02:42 -16.2 °C -17.2 °C 34442.4 hPa Calm   10.3 km/h 88 % 0 mm
02:47 -16.2 °C -17.2 °C 34442.4 hPa Calm   7.7 km/h 88 % 0 mm
02:52 -16.2 °C -17.2 °C 34442.4 hPa Calm   7.7 km/h 88 % 0 mm
03:02 -16.2 °C -17.2 °C 34442.4 hPa West 2.6 km/h 10.3 km/h 88 % 0 mm
03:12 -16.3 °C -17.3 °C 34442.4 hPa Calm   7.7 km/h 88 % 0 mm
03:17 -16.4 °C -17.4 °C 34442.4 hPa WNW 2.6 km/h 7.7 km/h 88 % 0 mm
03:22 -16.4 °C -17.3 °C 34442.4 hPa NW 2.6 km/h 7.7 km/h 89 % 0 mm
03:27 -16.5 °C -17.4 °C 34442.4 hPa Calm   7.7 km/h 89 % 0 mm
03:32 -16.5 °C -17.4 °C 34442.4 hPa NW 2.6 km/h 5.1 km/h 89 % 0 mm
03:42 -16.6 °C -17.4 °C 34442.4 hPa Calm   10.3 km/h 90 % 0 mm
03:52 -16.5 °C -17.3 °C 34442.4 hPa Calm   10.3 km/h 90 % 0 mm
03:57 -16.5 °C -17.3 °C 34442.4 hPa NNW 2.6 km/h 10.3 km/h 90 % 0 mm
04:02 -16.5 °C -17.3 °C 34442.4 hPa North 5.1 km/h 10.3 km/h 90 % 0 mm
04:12 -16.6 °C -17.4 °C 34442.4 hPa Calm   12.9 km/h 90 % 0 mm
04:17 -16.6 °C -17.4 °C 34442.4 hPa NNW 2.6 km/h 10.3 km/h 90 % 0 mm
04:22 -16.6 °C -17.3 °C 34442.4 hPa North 7.7 km/h 10.3 km/h 91 % 0 mm
04:32 -16.5 °C -17.2 °C 34442.4 hPa NNW 2.6 km/h 10.3 km/h 91 % 0 mm
04:42 -16.5 °C -17.2 °C 34442.4 hPa Calm   12.9 km/h 91 % 0 mm
04:47 -16.4 °C -17.2 °C 34442.4 hPa NW 2.6 km/h 10.3 km/h 91 % 0 mm
04:52 -16.4 °C -17.2 °C 34442.4 hPa NNW 2.6 km/h 10.3 km/h 90 % 0 mm
04:57 -16.4 °C -17.2 °C 34442.4 hPa North 2.6 km/h 10.3 km/h 90 % 0 mm
05:02 -16.4 °C -17.3 °C 34442.4 hPa NNW 5.1 km/h 12.9 km/h 90 % 0 mm
05:12 -16.4 °C -17.2 °C 34442.4 hPa NW 5.1 km/h 10.3 km/h 91 % 0 mm
05:17 -16.4 °C -17.2 °C 34442.4 hPa Calm   10.3 km/h 91 % 0 mm
05:22 -16.5 °C -17.2 °C 34442.4 hPa Calm   10.3 km/h 91 % 0 mm
05:32 -16.5 °C -17.2 °C 34442.4 hPa NW 2.6 km/h 5.1 km/h 91 % 0 mm
05:42 -16.6 °C -17.3 °C 34442.4 hPa Calm   5.1 km/h 91 % 0 mm
05:47 -16.6 °C -17.3 °C 34442.4 hPa WNW 2.6 km/h 5.1 km/h 91 % 0 mm
05:52 -16.6 °C -17.2 °C 34442.4 hPa NNW 7.7 km/h 7.7 km/h 92 % 0 mm
05:57 -16.6 °C -17.2 °C 34442.4 hPa NW 2.6 km/h 5.1 km/h 92 % 0 mm
06:02 -16.5 °C -17.2 °C 34442.4 hPa NW 2.6 km/h 10.3 km/h 92 % 0 mm
06:12 -16.5 °C -17.2 °C 34442.4 hPa Calm   10.3 km/h 92 % 0 mm
06:17 -16.5 °C -17.2 °C 34452.6 hPa NNW 2.6 km/h 10.3 km/h 92 % 0 mm
06:22 -16.5 °C -17.2 °C 34452.6 hPa NNW 2.6 km/h 7.7 km/h 92 % 0 mm
06:32 -16.4 °C -17.1 °C 34452.6 hPa North 5.1 km/h 7.7 km/h 92 % 0 mm
06:37 -16.4 °C -17.1 °C 34452.6 hPa Calm   10.3 km/h 92 % 0 mm
06:42 -16.4 °C -17.1 °C 34452.6 hPa Calm   10.3 km/h 92 % 0 mm
06:47 -16.5 °C -17.2 °C 34452.6 hPa WNW 2.6 km/h 10.3 km/h 91 % 0 mm
06:52 -16.6 °C -17.3 °C 34452.6 hPa WNW 2.6 km/h 5.1 km/h 91 % 0 mm
07:02 -16.6 °C -17.3 °C 34462.7 hPa WNW 2.6 km/h 5.1 km/h 92 % 0 mm
07:12 -16.7 °C -17.3 °C 34462.7 hPa Calm   7.7 km/h 92 % 0 mm
07:17 -16.6 °C -17.2 °C 34462.7 hPa Calm   7.7 km/h 93 % 0 mm
07:22 -16.6 °C -17.2 °C 34462.7 hPa Calm   5.1 km/h 93 % 0 mm
07:27 -16.6 °C -17.1 °C 34462.7 hPa Calm   5.1 km/h 93 % 0 mm
07:32 -16.5 °C -17.1 °C 34462.7 hPa NW 5.1 km/h 12.9 km/h 93 % 0 mm
07:37 -16.4 °C -17 °C 34462.7 hPa Calm   12.9 km/h 93 % 0 mm
07:42 -16.4 °C -17 °C 34462.7 hPa NW 2.6 km/h 15.6 km/h 93 % 0 mm
07:47 -16.4 °C -16.9 °C 34462.7 hPa NW 2.6 km/h 15.6 km/h 93 % 0 mm
07:52 -16.3 °C -16.9 °C 34462.7 hPa North 7.7 km/h 18.2 km/h 93 % 0 mm
07:57 -16.3 °C -16.8 °C 34462.7 hPa North 7.7 km/h 18.2 km/h 93 % 0 mm
08:02 -16.2 °C -16.8 °C 34462.7 hPa Calm   15.6 km/h 93 % 0 mm
08:12 -16.1 °C -16.8 °C 34462.7 hPa NNW 7.7 km/h 15.6 km/h 92 % 0 mm
08:17 -16.1 °C -16.7 °C 34462.7 hPa NNE 5.1 km/h 15.6 km/h 92 % 0 mm
08:22 -16 °C -16.7 °C 34462.7 hPa NNE 2.6 km/h 15.6 km/h 92 % 0 mm
08:32 -15.8 °C -16.6 °C 34476.3 hPa NNW 2.6 km/h 15.6 km/h 91 % 0 mm
08:42 -15.5 °C -16.3 °C 34476.3 hPa NNW 7.7 km/h 15.6 km/h 90 % 0 mm
08:52 -15.2 °C -16.3 °C 34476.3 hPa North 10.3 km/h 23.3 km/h 87 % 0 mm
09:02 -15.3 °C -16.5 °C 34486.4 hPa NW 10.3 km/h 28.5 km/h 86 % 0 mm
09:12 -15.3 °C -16.4 °C 34486.4 hPa NNW 5.1 km/h 20.8 km/h 87 % 0 mm
09:17 -15.3 °C -16.4 °C 34486.4 hPa North 10.3 km/h 20.8 km/h 86 % 0 mm
09:22 -15.3 °C -16.5 °C 34486.4 hPa NE 12.9 km/h 20.8 km/h 86 % 0 mm
09:32 -15.3 °C -16.4 °C 34486.4 hPa NNW 12.9 km/h 20.8 km/h 87 % 0 mm
09:42 -15.2 °C -16.4 °C 34486.4 hPa North 10.3 km/h 18.2 km/h 86 % 0 mm
09:52 -15.1 °C -16.3 °C 34486.4 hPa Calm   25.9 km/h 86 % 0 mm
10:02 -14.9 °C -16.2 °C 34486.4 hPa Calm   20.8 km/h 85 % 0 mm
10:12 -14.7 °C -16.3 °C 34486.4 hPa NNE 5.1 km/h 20.8 km/h 82 % 0 mm
10:17 -14.6 °C -16.2 °C 34486.4 hPa NE 10.3 km/h 20.8 km/h 82 % 0 mm
10:22 -14.6 °C -16.3 °C 34486.4 hPa North 12.9 km/h 18.2 km/h 80 % 0 mm
10:32 -14.5 °C -16.3 °C 34486.4 hPa NNW 5.1 km/h 15.6 km/h 80 % 0 mm
10:37 -14.4 °C -16.3 °C 34486.4 hPa NNW 10.3 km/h 15.6 km/h 79 % 0 mm
10:42 -14.3 °C -16.2 °C 34486.4 hPa NNW 10.3 km/h 15.6 km/h 79 % 0 mm
10:47 -14.2 °C -16.1 °C 34486.4 hPa West 2.6 km/h 15.6 km/h 79 % 0 mm
10:52 -14.1 °C -16.1 °C 34486.4 hPa NNE 5.1 km/h 15.6 km/h 77 % 0 mm
10:57 -14.1 °C -16.2 °C 34486.4 hPa NW 5.1 km/h 15.6 km/h 76 % 0 mm
11:02 -13.9 °C -16.1 °C 34496.6 hPa NNW 20.8 km/h 20.8 km/h 76 % 0 mm
11:12 -13.7 °C -15.9 °C 34486.4 hPa WNW 5.1 km/h 25.9 km/h 76 % 0 mm
11:22 -13.6 °C -15.9 °C 34486.4 hPa North 7.7 km/h 28.5 km/h 74 % 0 mm
11:32 -13.6 °C -16.1 °C 34486.4 hPa North 18.2 km/h 36.2 km/h 73 % 0 mm
11:37 -13.4 °C -16.3 °C 34486.4 hPa WSW 10.3 km/h 36.2 km/h 70 % 0 mm
11:42 -13.4 °C -16.1 °C 34486.4 hPa NNW 25.9 km/h 36.2 km/h 72 % 0 mm
11:52 -13.6 °C -16.4 °C 34476.3 hPa NE 10.3 km/h 33.6 km/h 70 % 0 mm
12:02 -13.5 °C -16.4 °C 34476.3 hPa NNE 23.3 km/h 38.8 km/h 69 % 0 mm
12:12 -13.4 °C -16.7 °C 34476.3 hPa North 15.6 km/h 38.8 km/h 66 % 0 mm
12:17 -13.4 °C -16.4 °C 34476.3 hPa NNE 7.7 km/h 38.8 km/h 68 % 0 mm
12:22 -13.5 °C -16.7 °C 34476.3 hPa North 7.7 km/h 38.8 km/h 67 % 0 mm
12:32 -13 °C -16.7 °C 34462.7 hPa NE 25.9 km/h 38.8 km/h 63 % 0 mm
12:37 -12.9 °C -16.7 °C 34462.7 hPa NNW 18.2 km/h 36.2 km/h 62 % 0 mm
12:42 -12.8 °C -16.9 °C 34476.3 hPa North 23.3 km/h 36.2 km/h 60 % 0 mm
12:47 -12.7 °C -17 °C 34462.7 hPa North 5.1 km/h 36.2 km/h 58 % 0 mm
12:57 -12.6 °C -16.9 °C 34462.7 hPa NNW 20.8 km/h 44.1 km/h 58 % 0 mm
13:02 -12.9 °C -17.3 °C 34476.3 hPa NNW 28.5 km/h 44.1 km/h 58 % 0 mm
13:12 -13.4 °C -17.1 °C 34476.3 hPa NNW 15.6 km/h 46.7 km/h 63 % 0 mm
13:17 -13.5 °C -17.6 °C 34476.3 hPa NW 10.3 km/h 46.7 km/h 60 % 0 mm
13:22 -13.4 °C -17.6 °C 34476.3 hPa WNW 15.6 km/h 41.4 km/h 59 % 0 mm
13:32 -12.8 °C -17.4 °C 34462.7 hPa NNW 12.9 km/h 33.6 km/h 56 % 0 mm
13:37 -12.6 °C -17.8 °C 34462.7 hPa NW 7.7 km/h 33.6 km/h 52 % 0 mm
13:42 -12.6 °C -17.6 °C 34462.7 hPa North 23.3 km/h 38.8 km/h 53 % 0 mm
13:47 -12.4 °C -16.9 °C 34462.7 hPa NNW 23.3 km/h 41.4 km/h 57 % 0 mm
13:52 -12.3 °C -17.3 °C 34462.7 hPa NNW 15.6 km/h 41.4 km/h 54 % 0 mm
14:02 -12.7 °C -17.9 °C 34462.7 hPa North 18.2 km/h 33.6 km/h 52 % 0 mm
14:12 -12.9 °C -17.9 °C 34462.7 hPa North 38.8 km/h 38.8 km/h 53 % 0 mm
14:17 -12.7 °C -17.5 °C 34462.7 hPa NNW 28.5 km/h 49.2 km/h 55 % 0 mm
14:22 -12.6 °C -17.9 °C 34462.7 hPa WNW 25.9 km/h 49.2 km/h 51 % 0 mm
14:32 -12.1 °C -17.4 °C 34452.6 hPa NE 15.6 km/h 41.4 km/h 51 % 0 mm
14:37 -11.8 °C -17.7 °C 34452.6 hPa NW 12.9 km/h 31.1 km/h 48 % 0 mm
14:42 -11.9 °C -17.6 °C 34452.6 hPa WNW 20.8 km/h 31.1 km/h 49 % 0 mm
14:47 -12.2 °C -18.2 °C 34452.6 hPa NE 7.7 km/h 44.1 km/h 47 % 0 mm
14:52 -12.4 °C -18.2 °C 34452.6 hPa NNW 28.5 km/h 44.1 km/h 48 % 0 mm
15:02 -12.1 °C -18.6 °C 34452.6 hPa NNW 38.8 km/h 41.4 km/h 44 % 0 mm
15:12 -12.4 °C -18.4 °C 34452.6 hPa NNW 18.2 km/h 41.4 km/h 47 % 0 mm
15:17 -12.4 °C -18.6 °C 34452.6 hPa NNE 5.1 km/h 44.1 km/h 46 % 0 mm
15:22 -12 °C -18.7 °C 34442.4 hPa WNW 18.2 km/h 41.4 km/h 43 % 0 mm
15:27 -11.9 °C -18.2 °C 34442.4 hPa NNW 33.6 km/h 36.2 km/h 45 % 0 mm
15:32 -12.1 °C -18.1 °C 34442.4 hPa NNE 38.8 km/h 38.8 km/h 47 % 0 mm
15:42 -12.4 °C -18.4 °C 34442.4 hPa NNW 12.9 km/h 46.7 km/h 47 % 0 mm
15:47 -12.1 °C -17.6 °C 34442.4 hPa NNE 10.3 km/h 46.7 km/h 50 % 0 mm
15:52 -11.8 °C -18.1 °C 34442.4 hPa North 18.2 km/h 46.7 km/h 46 % 0 mm
16:02 -11.7 °C -18.1 °C 34428.8 hPa NNW 28.5 km/h 31.1 km/h 45 % 0 mm
16:12 -12.3 °C -17.9 °C 34442.4 hPa NW 28.5 km/h 36.2 km/h 49 % 0 mm
16:17 -12.4 °C -18.1 °C 34442.4 hPa NE 25.9 km/h 41.4 km/h 49 % 0 mm
16:22 -12.4 °C -18.1 °C 34442.4 hPa NE 31.1 km/h 49.2 km/h 49 % 0 mm
16:27 -12.6 °C -18.3 °C 34442.4 hPa NNE 23.3 km/h 49.2 km/h 49 % 0 mm
16:32 -12.6 °C -18.4 °C 34442.4 hPa North 18.2 km/h 49.2 km/h 48 % 0 mm
16:42 -12.6 °C -18.1 °C 34428.8 hPa NNE 31.1 km/h 46.7 km/h 50 % 0 mm
16:52 -12.4 °C -17.9 °C 34428.8 hPa North 15.6 km/h 38.8 km/h 50 % 0 mm
16:57 -12.2 °C -17.8 °C 34428.8 hPa NNW 18.2 km/h 33.6 km/h 49 % 0 mm
17:02 -12.1 °C -18.4 °C 34428.8 hPa NE 15.6 km/h 33.6 km/h 45 % 0 mm
17:12 -11.9 °C -18.1 °C 34428.8 hPa NNE 7.7 km/h 46.7 km/h 46 % 0 mm
17:17 -11.9 °C -18.1 °C 34428.8 hPa NNE 7.7 km/h 41.4 km/h 46 % 0 mm
17:22 -11.8 °C -18.6 °C 34418.7 hPa NNW 7.7 km/h 41.4 km/h 43 % 0 mm
17:27 -11.7 °C -18.6 °C 34418.7 hPa NNE 10.3 km/h 28.5 km/h 42 % 0 mm
17:32 -11.6 °C -18.7 °C 34418.7 hPa NNE 12.9 km/h 25.9 km/h 41 % 0 mm
17:42 -11.7 °C -18.4 °C 34418.7 hPa NE 12.9 km/h 31.1 km/h 43 % 0 mm
17:52 -12.1 °C -18.2 °C 34428.8 hPa North 28.5 km/h 44.1 km/h 46 % 0 mm
17:57 -12.2 °C -18.8 °C 34418.7 hPa NNW 18.2 km/h 44.1 km/h 43 % 0 mm
18:02 -12.2 °C -18.7 °C 34428.8 hPa North 12.9 km/h 44.1 km/h 44 % 0 mm
18:12 -12.3 °C -18.4 °C 34428.8 hPa North 18.2 km/h 49.2 km/h 46 % 0 mm
18:17 -12.3 °C -18.8 °C 34428.8 hPa NNW 15.6 km/h 31.1 km/h 44 % 0 mm
18:22 -12.4 °C -17.9 °C 34428.8 hPa NNE 18.2 km/h 31.1 km/h 50 % 0 mm
18:32 -12.8 °C -17.4 °C 34442.4 hPa West 15.6 km/h 44.1 km/h 56 % 0 mm
18:42 -13 °C -17.4 °C 34442.4 hPa NNW 20.8 km/h 46.7 km/h 57 % 0 mm
18:52 -12.9 °C -17.2 °C 34442.4 hPa WNW 2.6 km/h 41.4 km/h 58 % 0 mm
18:57 -12.9 °C -17.6 °C 34442.4 hPa NW 25.9 km/h 41.4 km/h 56 % 0 mm
19:02 -13.2 °C -17.5 °C 34442.4 hPa WNW 10.3 km/h 41.4 km/h 58 % 0 mm
19:12 -13.3 °C -17.2 °C 34442.4 hPa WNW 10.3 km/h 36.2 km/h 61 % 0 mm
19:17 -13.1 °C -17.3 °C 34442.4 hPa North 10.3 km/h 33.6 km/h 59 % 0 mm
19:22 -12.9 °C -17.3 °C 34442.4 hPa NW 20.8 km/h 28.5 km/h 58 % 0 mm
19:27 -12.9 °C -17.5 °C 34442.4 hPa NW 12.9 km/h 28.5 km/h 56 % 0 mm
19:32 -12.8 °C -17.7 °C 34442.4 hPa NW 12.9 km/h 28.5 km/h 54 % 0 mm
19:42 -12.8 °C -17.7 °C 34442.4 hPa West 18.2 km/h 31.1 km/h 54 % 0 mm
19:47 -12.8 °C -17.7 °C 34442.4 hPa WNW 5.1 km/h 25.9 km/h 54 % 0 mm
19:52 -12.8 °C -17.7 °C 34442.4 hPa WNW 5.1 km/h 25.9 km/h 54 % 0 mm
19:57 -12.8 °C -18 °C 34452.6 hPa NW 12.9 km/h 23.3 km/h 52 % 0 mm
20:02 -12.9 °C -18.2 °C 34442.4 hPa NW 18.2 km/h 28.5 km/h 51 % 0 mm
20:12 -13 °C -18.3 °C 34452.6 hPa NW 7.7 km/h 36.2 km/h 51 % 0 mm
20:17 -13.1 °C -18.4 °C 34452.6 hPa NNW 10.3 km/h 33.6 km/h 51 % 0 mm
20:22 -13.1 °C -18.4 °C 34452.6 hPa North 10.3 km/h 33.6 km/h 51 % 0 mm
20:32 -13.4 °C -18.6 °C 34452.6 hPa NNW 23.3 km/h 31.1 km/h 52 % 0 mm
20:37 -13.6 °C -18.7 °C 34452.6 hPa NW 2.6 km/h 28.5 km/h 52 % 0 mm
20:42 -13.7 °C -18.7 °C 34462.7 hPa NW 5.1 km/h 23.3 km/h 53 % 0 mm
20:47 -13.7 °C -18.6 °C 34462.7 hPa NNW 10.3 km/h 23.3 km/h 54 % 0 mm
20:57 -13.9 °C -17.9 °C 34462.7 hPa North 10.3 km/h 28.5 km/h 60 % 0 mm
21:02 -14.1 °C -17.7 °C 34462.7 hPa NW 10.3 km/h 31.1 km/h 63 % 0 mm
21:12 -14.4 °C -17.4 °C 34462.7 hPa NW 12.9 km/h 31.1 km/h 68 % 0 mm
21:17 -14.6 °C -17.4 °C 34476.3 hPa WNW 10.3 km/h 23.3 km/h 69 % 0 mm
21:22 -14.7 °C -17.3 °C 34476.3 hPa NW 2.6 km/h 23.3 km/h 71 % 0 mm
21:27 -14.8 °C -17.3 °C 34476.3 hPa WNW 5.1 km/h 20.8 km/h 72 % 0 mm
21:32 -14.9 °C -17.3 °C 34476.3 hPa Calm   20.8 km/h 73 % 0 mm
21:42 -15.1 °C -17.4 °C 34476.3 hPa West 7.7 km/h 18.2 km/h 74 % 0 mm
21:47 -15.1 °C -17.4 °C 34486.4 hPa WNW 5.1 km/h 15.6 km/h 75 % 0 mm
21:57 -15.1 °C -17.4 °C 34486.4 hPa WNW 2.6 km/h 12.9 km/h 75 % 0 mm
22:02 -15.1 °C -17.4 °C 34486.4 hPa NW 2.6 km/h 12.9 km/h 75 % 0 mm
22:07 -15.1 °C -17.4 °C 34486.4 hPa Calm   12.9 km/h 75 % 0 mm
22:17 -15.1 °C -17.3 °C 34486.4 hPa NNW 2.6 km/h 7.7 km/h 76 % 0 mm
22:22 -15.1 °C -17.2 °C 34486.4 hPa NW 2.6 km/h 7.7 km/h 77 % 0 mm
22:32 -15.2 °C -17.2 °C 34486.4 hPa NW 5.1 km/h 7.7 km/h 77 % 0 mm
22:37 -15.2 °C -17.2 °C 34486.4 hPa NNW 5.1 km/h 10.3 km/h 77 % 0 mm
22:42 -15.2 °C -17.2 °C 34486.4 hPa WNW 5.1 km/h 12.9 km/h 77 % 0 mm
22:47 -15.2 °C -17.2 °C 34486.4 hPa NNW 5.1 km/h 15.6 km/h 77 % 0 mm
22:52 -15.2 °C -17.2 °C 34486.4 hPa WNW 12.9 km/h 15.6 km/h 77 % 0 mm
22:57 -15.2 °C -17.2 °C 34486.4 hPa WNW 2.6 km/h 15.6 km/h 77 % 0 mm
23:02 -15.2 °C -17.3 °C 34486.4 hPa NW 2.6 km/h 15.6 km/h 77 % 0 mm
23:12 -15.2 °C -17.2 °C 34486.4 hPa NNW 5.1 km/h 15.6 km/h 77 % 0 mm
23:17 -15.2 °C -17.2 °C 34486.4 hPa WNW 5.1 km/h 10.3 km/h 77 % 0 mm
23:22 -15.2 °C -17.3 °C 34486.4 hPa NW 2.6 km/h 12.9 km/h 77 % 0 mm
23:32 -15.3 °C -17.3 °C 34486.4 hPa NW 2.6 km/h 12.9 km/h 78 % 0 mm
23:37 -15.4 °C -17.3 °C 34486.4 hPa WNW 10.3 km/h 10.3 km/h 78 % 0 mm
23:42 -15.4 °C -17.4 °C 34486.4 hPa WNW 2.6 km/h 5.1 km/h 78 % 0 mm
23:52 -15.5 °C -17.4 °C 34486.4 hPa WNW 7.7 km/h 10.3 km/h 78 % 0 mm
23:57 -15.4 °C -17.5 °C 34486.4 hPa WNW 12.9 km/h 18.2 km/h 77 % 0 mm
Meteo18
Compliments of Weather Underground - 4 mb

Script developed by  Jim McMurry - jmcmurry@mwt.net Adapted for the template by  Wim van der Kuil - Leuven-Template.eu

You find our weather info also at:

European Weather Network

Weather Underground

Equipment we use:

Weather-station
Davis Vue

Weather-program
Meteobridge

Weather-server
Raspberry PI 2 B+

Provider
1 and 1

Davis Vue

Meteobridge

Raspberry PI 2 B+

1 and 1